createdAt,value
2017-09-10T00:00:05.180Z,7.40
2017-09-10T00:01:05.198Z,10.00
2017-09-10T00:02:05.222Z,4.80
2017-09-10T00:03:05.246Z,3.30
2017-09-10T00:04:05.265Z,5.40
2017-09-10T00:05:05.285Z,6.30
2017-09-10T00:06:05.311Z,6.80
2017-09-10T00:07:05.329Z,4.80
2017-09-10T00:08:05.349Z,3.60
2017-09-10T00:09:05.369Z,5.60
2017-09-10T00:10:05.394Z,5.60
2017-09-10T00:11:05.410Z,4.80
2017-09-10T00:12:05.436Z,5.30
2017-09-10T00:13:05.456Z,6.00
2017-09-10T00:14:05.472Z,8.10
2017-09-10T00:15:05.589Z,4.20
2017-09-10T00:16:05.517Z,6.40
2017-09-10T00:17:05.536Z,5.30
2017-09-10T00:18:05.560Z,6.80
2017-09-10T00:19:05.597Z,12.20
2017-09-10T00:20:05.604Z,6.60
2017-09-10T00:21:05.630Z,7.00
2017-09-10T00:22:05.642Z,5.00
2017-09-10T00:23:05.664Z,3.50
2017-09-10T00:24:05.704Z,5.70
2017-09-10T00:25:05.734Z,5.20
2017-09-10T00:26:05.729Z,4.30
2017-09-10T00:27:05.753Z,7.40
2017-09-10T00:28:05.773Z,3.00
2017-09-10T00:29:05.790Z,4.30
2017-09-10T00:30:05.817Z,5.30
2017-09-10T00:31:05.830Z,4.10
2017-09-10T00:32:05.853Z,5.60
2017-09-10T00:33:05.876Z,4.90
2017-09-10T00:34:05.896Z,8.30
2017-09-10T00:35:05.922Z,6.60
2017-09-10T00:36:05.984Z,2.70
2017-09-10T00:37:05.977Z,5.00
2017-09-10T00:38:05.995Z,8.20
2017-09-10T00:39:06.001Z,6.20
2017-09-10T00:40:06.023Z,5.30
2017-09-10T00:41:06.043Z,5.00
2017-09-10T00:42:06.062Z,4.20
2017-09-10T00:43:06.083Z,9.30
2017-09-10T00:44:06.132Z,6.00
2017-09-10T00:45:06.128Z,7.60
2017-09-10T00:46:06.160Z,8.40
2017-09-10T00:47:06.183Z,6.70
2017-09-10T00:48:06.207Z,5.90
2017-09-10T00:49:06.210Z,7.70
2017-09-10T00:50:06.238Z,6.40
2017-09-10T00:51:06.259Z,5.80
2017-09-10T00:52:06.287Z,5.70
2017-09-10T00:53:06.295Z,6.20
2017-09-10T00:54:06.326Z,5.20
2017-09-10T00:55:06.340Z,6.10
2017-09-10T00:56:06.382Z,10.60
2017-09-10T00:57:06.385Z,22.20
2017-09-10T00:58:06.425Z,5.50
2017-09-10T00:59:06.424Z,5.20
2017-09-10T01:00:06.453Z,3.50
2017-09-10T01:01:06.463Z,5.20
2017-09-10T01:02:06.499Z,5.40
2017-09-10T01:03:06.517Z,5.60
2017-09-10T01:04:06.526Z,4.60
2017-09-10T01:05:06.549Z,5.20
2017-09-10T01:06:06.573Z,7.20
2017-09-10T01:07:06.590Z,4.70
2017-09-10T01:08:06.611Z,5.40
2017-09-10T01:09:06.635Z,9.80
2017-09-10T01:10:06.654Z,4.30
2017-09-10T01:11:06.689Z,5.40
2017-09-10T01:12:06.735Z,5.30
2017-09-10T01:13:06.718Z,5.70
2017-09-10T01:14:06.739Z,7.60
2017-09-10T01:15:06.761Z,5.70
2017-09-10T01:16:06.781Z,8.50
2017-09-10T01:17:06.806Z,7.00
2017-09-10T01:18:06.822Z,6.60
2017-09-10T01:19:06.846Z,7.30
2017-09-10T01:20:06.866Z,3.30
2017-09-10T01:21:06.892Z,5.50
2017-09-10T01:22:06.913Z,4.90
2017-09-10T01:23:06.926Z,4.40
2017-09-10T01:24:06.957Z,5.10
2017-09-10T01:25:06.969Z,4.20
2017-09-10T01:26:06.989Z,5.60
2017-09-10T01:27:07.011Z,6.30
2017-09-10T01:28:07.033Z,2.90
2017-09-10T01:29:07.057Z,17.40
2017-09-10T01:30:07.076Z,9.50
2017-09-10T01:31:07.093Z,6.60
2017-09-10T01:32:07.116Z,6.50
2017-09-10T01:33:07.139Z,6.30
2017-09-10T01:34:07.163Z,7.80
2017-09-10T01:35:07.189Z,5.10
2017-09-10T01:36:07.201Z,4.40
2017-09-10T01:37:07.222Z,4.20
2017-09-10T01:38:07.243Z,3.60
2017-09-10T01:39:07.266Z,4.60
2017-09-10T01:40:07.284Z,7.50
2017-09-10T01:41:07.310Z,4.50
2017-09-10T01:42:07.331Z,3.80
2017-09-10T01:43:07.346Z,6.80
2017-09-10T01:44:07.372Z,4.60
2017-09-10T01:45:07.391Z,7.10
2017-09-10T01:46:07.418Z,6.30
2017-09-10T01:47:07.429Z,5.00
2017-09-10T01:48:07.464Z,7.30
2017-09-10T01:49:07.474Z,6.70
2017-09-10T01:50:07.495Z,6.30
2017-09-10T01:51:07.515Z,4.90
2017-09-10T01:52:07.536Z,5.80
2017-09-10T01:53:07.554Z,5.60
2017-09-10T01:54:07.576Z,5.60
2017-09-10T01:55:07.600Z,5.40
2017-09-10T01:56:07.621Z,8.50
2017-09-10T01:57:07.641Z,5.90
2017-09-10T01:58:07.661Z,6.50
2017-09-10T01:59:07.688Z,4.40
2017-09-10T02:00:07.706Z,5.50
2017-09-10T02:01:07.730Z,7.10
2017-09-10T02:02:07.750Z,6.80
2017-09-10T02:03:07.774Z,5.90
2017-09-10T02:04:07.787Z,6.10
2017-09-10T02:05:07.809Z,4.40
2017-09-10T02:06:07.829Z,5.80
2017-09-10T02:07:07.876Z,3.80
2017-09-10T02:08:07.872Z,4.90
2017-09-10T02:09:07.892Z,3.70
2017-09-10T02:10:07.914Z,6.90
2017-09-10T02:11:07.931Z,5.30
2017-09-10T02:12:07.954Z,13.20
2017-09-10T02:13:07.977Z,7.60
2017-09-10T02:14:07.999Z,6.10
2017-09-10T02:15:08.015Z,6.20
2017-09-10T02:16:08.070Z,13.00
2017-09-10T02:17:08.059Z,5.50
2017-09-10T02:18:08.085Z,6.80
2017-09-10T02:19:08.118Z,6.60
2017-09-10T02:20:08.122Z,7.60
2017-09-10T02:21:08.143Z,9.00
2017-09-10T02:22:08.164Z,4.20
2017-09-10T02:23:08.188Z,4.00
2017-09-10T02:24:08.205Z,6.40
2017-09-10T02:25:08.227Z,6.20
2017-09-10T02:26:08.249Z,4.90
2017-09-10T02:27:08.266Z,7.80
2017-09-10T02:28:08.290Z,4.80
2017-09-10T02:29:08.310Z,7.50
2017-09-10T02:30:08.332Z,7.00
2017-09-10T02:31:08.354Z,5.00
2017-09-10T02:32:08.372Z,5.20
2017-09-10T02:33:08.394Z,6.10
2017-09-10T02:34:08.417Z,4.30
2017-09-10T02:35:08.434Z,11.80
2017-09-10T02:36:08.472Z,4.80
2017-09-10T02:37:08.479Z,6.90
2017-09-10T02:38:08.500Z,12.90
2017-09-10T02:39:08.519Z,4.80
2017-09-10T02:40:08.546Z,6.30
2017-09-10T02:41:08.564Z,5.10
2017-09-10T02:42:08.583Z,7.50
2017-09-10T02:43:08.604Z,5.20
2017-09-10T02:44:08.625Z,5.80
2017-09-10T02:45:08.649Z,6.20
2017-09-10T02:46:08.669Z,5.00
2017-09-10T02:47:08.686Z,7.20
2017-09-10T02:48:08.706Z,4.80
2017-09-10T02:49:08.729Z,7.30
2017-09-10T02:50:08.750Z,4.10
2017-09-10T02:51:08.771Z,5.70
2017-09-10T02:52:08.792Z,4.40
2017-09-10T02:53:08.822Z,2.90
2017-09-10T02:54:08.834Z,5.50
2017-09-10T02:55:08.853Z,6.40
2017-09-10T02:56:08.879Z,6.20
2017-09-10T02:57:08.897Z,7.80
2017-09-10T02:58:08.915Z,5.10
2017-09-10T02:59:08.936Z,8.00
2017-09-10T03:00:08.959Z,5.70
2017-09-10T03:01:08.989Z,5.70
2017-09-10T03:02:09.004Z,8.40
2017-09-10T03:03:09.020Z,6.50
2017-09-10T03:04:09.053Z,6.20
2017-09-10T03:05:09.062Z,5.90
2017-09-10T03:06:09.085Z,4.90
2017-09-10T03:07:09.102Z,5.10
2017-09-10T03:08:09.125Z,4.80
2017-09-10T03:09:09.150Z,5.30
2017-09-10T03:10:09.166Z,6.10
2017-09-10T03:11:09.186Z,7.10
2017-09-10T03:12:09.216Z,3.80
2017-09-10T03:13:09.236Z,6.50
2017-09-10T03:14:09.250Z,6.10
2017-09-10T03:15:09.276Z,7.70
2017-09-10T03:16:09.295Z,4.40
2017-09-10T03:17:09.313Z,5.20
2017-09-10T03:18:09.332Z,5.20
2017-09-10T03:19:09.362Z,5.50
2017-09-10T03:20:09.376Z,3.90
2017-09-10T03:21:09.398Z,3.80
2017-09-10T03:22:09.416Z,6.10
2017-09-10T03:23:09.437Z,4.90
2017-09-10T03:24:09.462Z,5.60
2017-09-10T03:25:09.486Z,5.70
2017-09-10T03:26:09.501Z,4.10
2017-09-10T03:27:09.525Z,5.50
2017-09-10T03:28:09.539Z,6.30
2017-09-10T03:29:09.565Z,4.90
2017-09-10T03:30:09.592Z,4.50
2017-09-10T03:31:09.603Z,7.60
2017-09-10T03:32:09.629Z,6.40
2017-09-10T03:33:09.654Z,4.40
2017-09-10T03:34:09.676Z,6.30
2017-09-10T03:35:09.693Z,7.10
2017-09-10T03:36:09.709Z,6.40
2017-09-10T03:37:09.728Z,5.70
2017-09-10T03:38:09.768Z,5.30
2017-09-10T03:39:09.769Z,5.90
2017-09-10T03:40:09.791Z,6.00
2017-09-10T03:41:09.812Z,9.20
2017-09-10T03:42:09.834Z,3.80
2017-09-10T03:43:09.859Z,4.80
2017-09-10T03:44:09.874Z,4.90
2017-09-10T03:45:09.898Z,11.60
2017-09-10T03:46:09.920Z,5.50
2017-09-10T03:47:09.939Z,5.10
2017-09-10T03:48:09.960Z,3.30
2017-09-10T03:49:09.979Z,5.00
2017-09-10T03:50:10.000Z,4.60
2017-09-10T03:51:10.025Z,9.80
2017-09-10T03:52:10.042Z,3.50
2017-09-10T03:53:10.065Z,5.00
2017-09-10T03:54:10.096Z,7.60
2017-09-10T03:55:10.107Z,8.20
2017-09-10T03:56:10.126Z,4.60
2017-09-10T03:57:10.148Z,6.20
2017-09-10T03:58:10.170Z,5.00
2017-09-10T03:59:10.190Z,7.70
2017-09-10T04:00:10.221Z,4.80
2017-09-10T04:01:10.232Z,6.50
2017-09-10T04:02:10.251Z,4.20
2017-09-10T04:03:10.272Z,4.40
2017-09-10T04:04:10.297Z,4.70
2017-09-10T04:05:10.314Z,7.20
2017-09-10T04:06:10.334Z,5.40
2017-09-10T04:07:10.355Z,5.00
2017-09-10T04:08:10.378Z,6.10
2017-09-10T04:09:10.399Z,6.10
2017-09-10T04:10:10.418Z,7.20
2017-09-10T04:11:10.440Z,10.60
2017-09-10T04:12:10.460Z,5.90
2017-09-10T04:13:10.483Z,5.30
2017-09-10T04:14:10.517Z,5.50
2017-09-10T04:15:10.521Z,4.20
2017-09-10T04:16:10.545Z,6.90
2017-09-10T04:17:10.564Z,6.50
2017-09-10T04:18:10.592Z,3.90
2017-09-10T04:19:10.604Z,5.50
2017-09-10T04:20:10.632Z,6.90
2017-09-10T04:21:10.655Z,6.40
2017-09-10T04:22:10.669Z,4.40
2017-09-10T04:23:10.689Z,5.90
2017-09-10T04:24:10.717Z,3.70
2017-09-10T04:25:10.732Z,3.90
2017-09-10T04:26:10.753Z,6.50
2017-09-10T04:27:10.774Z,7.50
2017-09-10T04:28:10.799Z,6.10
2017-09-10T04:29:10.832Z,4.10
2017-09-10T04:30:10.836Z,6.30
2017-09-10T04:31:10.861Z,5.10
2017-09-10T04:32:10.878Z,3.60
2017-09-10T04:33:10.898Z,8.70
2017-09-10T04:34:10.921Z,5.70
2017-09-10T04:35:10.941Z,7.80
2017-09-10T04:36:10.960Z,3.70
2017-09-10T04:37:10.982Z,6.00
2017-09-10T04:38:11.002Z,5.40
2017-09-10T04:39:11.023Z,6.40
2017-09-10T04:40:11.064Z,6.30
2017-09-10T04:41:11.076Z,6.20
2017-09-10T04:42:11.085Z,4.90
2017-09-10T04:43:11.110Z,5.20
2017-09-10T04:44:11.142Z,5.20
2017-09-10T04:45:11.167Z,7.40
2017-09-10T04:46:11.169Z,4.90
2017-09-10T04:47:11.190Z,3.90
2017-09-10T04:48:11.210Z,6.30
2017-09-10T04:49:11.232Z,7.10
2017-09-10T04:50:11.268Z,4.50
2017-09-10T04:51:11.273Z,7.50
2017-09-10T04:52:11.304Z,6.20
2017-09-10T04:53:11.313Z,7.70
2017-09-10T04:54:11.334Z,5.30
2017-09-10T04:55:11.356Z,3.80
2017-09-10T04:56:11.377Z,13.20
2017-09-10T04:57:11.398Z,5.00
2017-09-10T04:58:11.422Z,4.30
2017-09-10T04:59:11.450Z,7.40
2017-09-10T05:00:11.458Z,5.70
2017-09-10T05:01:11.486Z,13.20
2017-09-10T05:02:11.502Z,5.50
2017-09-10T05:03:11.523Z,3.80
2017-09-10T05:04:11.553Z,6.70
2017-09-10T05:05:11.566Z,6.20
2017-09-10T05:06:11.585Z,8.50
2017-09-10T05:07:11.617Z,3.50
2017-09-10T05:08:11.627Z,4.10
2017-09-10T05:09:11.649Z,6.40
2017-09-10T05:10:11.712Z,4.20
2017-09-10T05:11:11.688Z,4.60
2017-09-10T05:12:11.715Z,6.80
2017-09-10T05:13:11.732Z,5.30
2017-09-10T05:14:11.757Z,6.60
2017-09-10T05:15:11.773Z,4.70
2017-09-10T05:16:11.802Z,4.50
2017-09-10T05:17:11.815Z,4.10
2017-09-10T05:18:11.836Z,4.00
2017-09-10T05:19:11.881Z,16.00
2017-09-10T05:20:11.881Z,6.10
2017-09-10T05:21:11.899Z,4.50
2017-09-10T05:22:11.920Z,6.80
2017-09-10T05:23:11.950Z,19.20
2017-09-10T05:24:11.964Z,5.30
2017-09-10T05:25:11.984Z,3.50
2017-09-10T05:26:12.004Z,9.90
2017-09-10T05:27:12.023Z,4.70
2017-09-10T05:28:12.048Z,5.70
2017-09-10T05:29:12.072Z,5.00
2017-09-10T05:30:12.093Z,7.10
2017-09-10T05:31:12.108Z,6.00
2017-09-10T05:32:12.133Z,5.90
2017-09-10T05:33:12.159Z,7.60
2017-09-10T05:34:12.170Z,5.80
2017-09-10T05:35:12.192Z,6.40
2017-09-10T05:36:12.216Z,3.30
2017-09-10T05:37:12.266Z,3.90
2017-09-10T05:38:12.261Z,4.50
2017-09-10T05:39:12.323Z,4.50
2017-09-10T05:40:12.299Z,3.50
2017-09-10T05:41:12.322Z,5.30
2017-09-10T05:42:12.343Z,5.10
2017-09-10T05:43:12.397Z,6.20
2017-09-10T05:44:12.384Z,8.50
2017-09-10T05:45:12.414Z,6.00
2017-09-10T05:46:12.421Z,5.30
2017-09-10T05:47:12.445Z,5.60
2017-09-10T05:48:12.464Z,4.50
2017-09-10T05:49:12.482Z,3.00
2017-09-10T05:50:12.510Z,7.10
2017-09-10T05:51:12.525Z,6.70
2017-09-10T05:52:12.549Z,5.30
2017-09-10T05:53:12.568Z,3.60
2017-09-10T05:54:12.588Z,3.60
2017-09-10T05:55:12.612Z,5.60
2017-09-10T05:56:12.630Z,4.50
2017-09-10T05:57:12.690Z,10.40
2017-09-10T05:58:12.672Z,4.80
2017-09-10T05:59:12.698Z,12.20
2017-09-10T06:00:12.716Z,4.10
2017-09-10T06:01:12.737Z,2.90
2017-09-10T06:02:12.761Z,4.30
2017-09-10T06:03:12.778Z,5.10
2017-09-10T06:04:12.800Z,4.60
2017-09-10T06:05:12.828Z,5.00
2017-09-10T06:06:12.851Z,3.60
2017-09-10T06:07:12.860Z,6.30
2017-09-10T06:08:12.887Z,4.80
2017-09-10T06:09:12.906Z,4.70
2017-09-10T06:10:12.928Z,4.00
2017-09-10T06:11:12.945Z,4.50
2017-09-10T06:12:12.967Z,5.10
2017-09-10T06:13:12.987Z,2.80
2017-09-10T06:14:13.019Z,5.50
2017-09-10T06:15:13.034Z,3.50
2017-09-10T06:16:13.050Z,1.80
2017-09-10T06:17:13.075Z,1.60
2017-09-10T06:18:13.096Z,2.40
2017-09-10T06:19:13.116Z,3.20
2017-09-10T06:20:13.138Z,5.70
2017-09-10T06:21:13.171Z,6.00
2017-09-10T06:22:13.177Z,3.10
2017-09-10T06:23:13.201Z,3.50
2017-09-10T06:24:13.223Z,2.40
2017-09-10T06:25:13.244Z,3.70
2017-09-10T06:26:13.267Z,5.20
2017-09-10T06:27:13.286Z,4.00
2017-09-10T06:28:13.310Z,1.80
2017-09-10T06:29:13.328Z,3.50
2017-09-10T06:30:13.352Z,4.10
2017-09-10T06:31:13.387Z,4.10
2017-09-10T06:32:13.398Z,3.60
2017-09-10T06:33:13.429Z,3.00
2017-09-10T06:34:13.441Z,3.40
2017-09-10T06:35:13.460Z,4.80
2017-09-10T06:36:13.485Z,1.70
2017-09-10T06:37:13.503Z,5.80
2017-09-10T06:38:13.522Z,3.00
2017-09-10T06:39:13.558Z,2.40
2017-09-10T06:40:13.568Z,1.20
2017-09-10T06:41:13.599Z,2.80
2017-09-10T06:42:13.634Z,3.00
2017-09-10T06:43:13.639Z,1.20
2017-09-10T06:44:13.655Z,3.00
2017-09-10T06:45:13.681Z,3.90
2017-09-10T06:46:13.702Z,2.60
2017-09-10T06:47:13.736Z,1.60
2017-09-10T06:48:13.752Z,2.30
2017-09-10T06:49:13.768Z,1.90
2017-09-10T06:50:13.799Z,1.80
2017-09-10T06:51:13.815Z,4.00
2017-09-10T06:52:13.836Z,1.20
2017-09-10T06:53:13.868Z,1.60
2017-09-10T06:54:13.885Z,3.30
2017-09-10T06:55:13.905Z,1.40
2017-09-10T06:56:13.931Z,1.20
2017-09-10T06:57:13.960Z,2.40
2017-09-10T06:58:13.974Z,1.20
2017-09-10T06:59:14.001Z,1.40
2017-09-10T07:00:14.030Z,4.60
2017-09-10T07:01:14.045Z,1.20
2017-09-10T07:02:14.064Z,2.90
2017-09-10T07:03:14.089Z,5.50
2017-09-10T07:04:14.111Z,9.80
2017-09-10T07:05:14.141Z,6.40
2017-09-10T07:06:14.156Z,5.60
2017-09-10T07:07:14.184Z,13.00
2017-09-10T07:10:13.266Z,22.80
2017-09-10T07:11:13.253Z,8.10
2017-09-10T07:13:06.247Z,5.00
2017-09-10T07:14:06.212Z,6.20
2017-09-10T07:16:00.149Z,8.70
2017-09-10T07:17:00.166Z,5.20
2017-09-10T07:18:53.145Z,5.70
2017-09-10T07:19:53.125Z,9.70
2017-09-10T07:21:46.069Z,8.00
2017-09-10T07:22:46.088Z,4.90
2017-09-10T07:24:39.075Z,4.70
2017-09-10T07:25:39.051Z,4.40
2017-09-10T07:27:32.991Z,7.30
2017-09-10T07:28:33.012Z,8.40
2017-09-10T07:30:25.988Z,7.70
2017-09-10T07:31:25.976Z,4.90
2017-09-10T07:33:18.957Z,6.60
2017-09-10T07:34:18.941Z,5.50
2017-09-10T07:36:11.881Z,6.80
2017-09-10T07:37:11.909Z,7.30
2017-09-10T07:39:04.886Z,6.80
2017-09-10T07:40:04.871Z,7.50
2017-09-10T07:41:57.814Z,2.90
2017-09-10T07:42:57.833Z,4.80
2017-09-10T07:44:50.805Z,4.20
2017-09-10T07:45:50.794Z,3.40
2017-09-10T07:47:43.742Z,3.20
2017-09-10T07:48:43.769Z,3.40
2017-09-10T07:50:36.740Z,3.60
2017-09-10T07:51:36.721Z,6.60
2017-09-10T07:53:29.662Z,5.80
2017-09-10T07:54:29.684Z,5.60
2017-09-10T07:56:22.668Z,5.50
2017-09-10T07:57:22.656Z,5.10
2017-09-10T07:59:15.605Z,2.20
2017-09-10T08:00:15.626Z,1.60
2017-09-10T08:02:08.606Z,2.30
2017-09-10T08:03:08.589Z,1.60
2017-09-10T08:05:01.573Z,3.20
2017-09-10T08:06:01.558Z,2.40
2017-09-10T08:07:54.501Z,1.80
2017-09-10T08:08:54.521Z,6.70
2017-09-10T08:10:47.512Z,4.30
2017-09-10T08:11:47.494Z,5.40
2017-09-10T08:13:40.421Z,2.40
2017-09-10T08:14:40.440Z,4.00
2017-09-10T08:16:33.417Z,2.50
2017-09-10T08:17:33.404Z,6.30
2017-09-10T08:19:26.345Z,3.10
2017-09-10T08:20:26.369Z,7.30
2017-09-10T08:22:19.346Z,4.40
2017-09-10T08:23:19.331Z,3.70
2017-09-10T08:25:12.288Z,2.50
2017-09-10T08:26:12.300Z,1.90
2017-09-10T08:28:05.278Z,4.70
2017-09-10T08:29:05.261Z,1.50
2017-09-10T08:30:58.199Z,3.20
2017-09-10T08:31:58.222Z,2.70
2017-09-10T08:33:51.203Z,3.40
2017-09-10T08:34:51.188Z,3.50
2017-09-10T08:36:44.164Z,2.60
2017-09-10T08:37:44.161Z,2.10
2017-09-10T08:39:37.092Z,2.90
2017-09-10T08:40:37.124Z,5.50
2017-09-10T08:42:30.090Z,3.30
2017-09-10T08:43:30.081Z,4.00
2017-09-10T08:45:23.024Z,3.00
2017-09-10T08:46:23.047Z,2.30
2017-09-10T08:48:16.016Z,1.60
2017-09-10T08:49:16.003Z,1.20
2017-09-10T08:51:08.965Z,4.00
2017-09-10T08:52:08.979Z,2.50
2017-09-10T08:54:01.964Z,2.90
2017-09-10T08:55:01.945Z,4.10
2017-09-10T08:56:54.886Z,1.90
2017-09-10T08:57:54.903Z,1.50
2017-09-10T08:59:47.887Z,2.20
2017-09-10T09:00:47.872Z,1.70
2017-09-10T09:02:40.825Z,3.50
2017-09-10T09:03:40.833Z,1.40
2017-09-10T09:05:33.823Z,2.70
2017-09-10T09:06:33.802Z,1.40
2017-09-10T09:08:26.762Z,2.40
2017-09-10T09:09:26.773Z,2.70
2017-09-10T09:11:19.764Z,3.70
2017-09-10T09:12:19.740Z,2.20
2017-09-10T09:14:12.718Z,2.80
2017-09-10T09:15:12.706Z,2.70
2017-09-10T09:17:05.652Z,1.80
2017-09-10T09:18:05.675Z,2.00
2017-09-10T09:19:58.650Z,2.80
2017-09-10T09:20:58.632Z,2.50
2017-09-10T09:22:51.574Z,1.60
2017-09-10T09:23:51.589Z,2.00
2017-09-10T09:25:44.575Z,3.50
2017-09-10T09:26:44.561Z,2.90
2017-09-10T09:28:37.499Z,1.30
2017-09-10T09:29:37.519Z,2.50
2017-09-10T09:31:30.493Z,1.80
2017-09-10T09:32:30.481Z,1.70
2017-09-10T09:34:23.429Z,2.50
2017-09-10T09:35:23.440Z,3.90
2017-09-10T09:37:16.426Z,1.90
2017-09-10T09:38:16.409Z,1.70
2017-09-10T09:40:09.381Z,2.20
2017-09-10T09:41:09.366Z,1.20
2017-09-10T09:43:02.313Z,1.10
2017-09-10T09:44:02.333Z,1.80
2017-09-10T09:45:55.306Z,5.00
2017-09-10T09:46:55.294Z,5.30
2017-09-10T09:48:48.233Z,2.60
2017-09-10T09:49:48.258Z,1.30
2017-09-10T09:51:41.236Z,3.00
2017-09-10T09:52:41.221Z,1.80
2017-09-10T09:54:34.163Z,2.30
2017-09-10T09:55:34.180Z,2.00
2017-09-10T09:57:27.170Z,1.70
2017-09-10T09:58:27.151Z,1.20
2017-09-10T10:00:20.099Z,2.60
2017-09-10T10:01:20.120Z,1.80
2017-09-10T10:03:13.114Z,2.50
2017-09-10T10:04:13.095Z,3.10
2017-09-10T10:06:06.096Z,2.30
2017-09-10T10:07:06.063Z,1.30
2017-09-10T10:08:59.013Z,1.20
2017-09-10T10:09:59.031Z,1.40
2017-09-10T10:11:52.014Z,1.80
2017-09-10T10:12:51.992Z,2.40
2017-09-10T10:14:44.938Z,1.80
2017-09-10T10:15:44.958Z,2.10
2017-09-10T10:17:38.932Z,1.70
2017-09-10T10:18:38.912Z,1.40
2017-09-10T10:20:31.866Z,1.40
2017-09-10T10:21:31.882Z,1.20
2017-09-10T10:23:24.867Z,1.70
2017-09-10T10:24:24.851Z,1.20
2017-09-10T10:26:17.798Z,1.20
2017-09-10T10:27:17.815Z,1.80
2017-09-10T10:29:10.790Z,1.70
2017-09-10T10:30:10.777Z,1.40
2017-09-10T10:32:03.728Z,1.40
2017-09-10T10:33:03.750Z,1.20
2017-09-10T10:34:56.731Z,1.20
2017-09-10T10:35:56.716Z,1.30
2017-09-10T10:37:49.664Z,1.40
2017-09-10T10:38:49.685Z,1.10
2017-09-10T10:40:42.664Z,2.20
2017-09-10T10:41:42.643Z,1.30
2017-09-10T10:43:35.626Z,1.30
2017-09-10T10:44:35.627Z,1.80
2017-09-10T10:46:28.553Z,1.30
2017-09-10T10:47:28.575Z,1.20
2017-09-10T10:49:21.574Z,1.30
2017-09-10T10:50:21.548Z,1.00
2017-09-10T10:52:14.495Z,1.10
2017-09-10T10:53:14.513Z,1.20
2017-09-10T10:55:08.008Z,1.20
2017-09-10T10:56:07.975Z,1.80
2017-09-10T10:58:01.423Z,1.10
2017-09-10T10:59:01.438Z,1.10
2017-09-10T11:00:54.424Z,1.20
2017-09-10T11:01:54.405Z,1.90
2017-09-10T11:03:47.352Z,1.10
2017-09-10T11:04:47.371Z,1.00
2017-09-10T11:06:40.350Z,1.30
2017-09-10T11:07:40.329Z,1.20
2017-09-10T11:09:33.283Z,2.70
2017-09-10T11:10:33.303Z,1.60
2017-09-10T11:12:26.275Z,1.10
2017-09-10T11:13:26.260Z,1.00
2017-09-10T11:15:19.214Z,1.30
2017-09-10T11:16:19.232Z,1.20
2017-09-10T11:18:12.224Z,1.40
2017-09-10T11:19:12.213Z,1.20
2017-09-10T11:21:05.678Z,1.40
2017-09-10T11:22:05.667Z,1.40
2017-09-10T11:23:58.619Z,0.90
2017-09-10T11:24:58.638Z,1.30
2017-09-10T11:26:51.621Z,1.00
2017-09-10T11:27:51.599Z,0.90
2017-09-10T11:29:44.544Z,0.90
2017-09-10T11:30:44.565Z,1.20
2017-09-10T11:32:37.551Z,1.80
2017-09-10T11:33:37.530Z,1.10
2017-09-10T11:35:30.482Z,1.20
2017-09-10T11:36:30.489Z,2.00
2017-09-10T11:38:23.471Z,2.00
2017-09-10T11:39:23.455Z,1.80
2017-09-10T11:41:16.406Z,1.40
2017-09-10T11:42:16.426Z,1.70
2017-09-10T11:44:09.402Z,1.00
2017-09-10T11:45:09.381Z,2.40
2017-09-10T11:47:02.330Z,1.50
2017-09-10T11:48:02.349Z,1.30
2017-09-10T11:49:55.350Z,2.10
2017-09-10T11:50:55.320Z,2.40
2017-09-10T11:52:48.317Z,1.30
2017-09-10T11:53:48.282Z,2.10
2017-09-10T11:55:41.247Z,1.10
2017-09-10T11:56:41.248Z,1.10
2017-09-10T11:58:34.223Z,1.30
2017-09-10T11:59:34.219Z,1.60
2017-09-10T12:01:27.201Z,1.20
2017-09-10T12:02:27.183Z,2.20
2017-09-10T12:04:20.183Z,1.50
2017-09-10T12:05:20.153Z,1.60
2017-09-10T12:07:13.098Z,0.90
2017-09-10T12:08:13.127Z,1.20
2017-09-10T12:10:06.098Z,2.00
2017-09-10T12:11:06.081Z,1.90
2017-09-10T12:12:59.022Z,1.00
2017-09-10T12:13:59.043Z,1.40
2017-09-10T12:15:52.021Z,1.20
2017-09-10T12:16:52.009Z,1.30
2017-09-10T12:18:44.945Z,0.80
2017-09-10T12:19:44.967Z,1.60
2017-09-10T12:21:37.948Z,1.00
2017-09-10T12:22:37.934Z,1.00
2017-09-10T12:24:30.909Z,1.10
2017-09-10T12:25:30.897Z,0.90
2017-09-10T12:27:23.839Z,1.40
2017-09-10T12:28:23.859Z,0.90
2017-09-10T12:30:16.831Z,1.80
2017-09-10T12:31:16.817Z,2.10
2017-09-10T12:33:09.766Z,1.00
2017-09-10T12:34:09.783Z,1.30
2017-09-10T12:36:02.769Z,0.80
2017-09-10T12:37:02.765Z,1.00
2017-09-10T12:38:55.697Z,2.60
2017-09-10T12:39:55.724Z,1.10
2017-09-10T12:41:48.698Z,0.90
2017-09-10T12:42:48.688Z,1.00
2017-09-10T12:44:41.627Z,1.20
2017-09-10T12:45:41.649Z,1.30
2017-09-10T12:47:34.634Z,0.90
2017-09-10T12:48:34.616Z,1.20
2017-09-10T12:50:27.563Z,2.30
2017-09-10T12:51:27.583Z,1.90
2017-09-10T12:53:20.559Z,0.90
2017-09-10T12:54:20.543Z,0.90
2017-09-10T12:56:13.531Z,0.90
2017-09-10T12:57:13.525Z,1.30
2017-09-10T12:59:06.455Z,1.10
2017-09-10T13:00:06.475Z,1.30
2017-09-10T13:01:59.455Z,1.00
2017-09-10T13:02:59.435Z,1.00
2017-09-10T13:04:52.404Z,2.10
2017-09-10T13:05:52.414Z,1.10
2017-09-10T13:07:45.394Z,1.10
2017-09-10T13:08:45.377Z,1.10
2017-09-10T13:10:38.324Z,1.80
2017-09-10T13:11:38.344Z,2.60
2017-09-10T13:13:31.333Z,1.30
2017-09-10T13:14:31.315Z,1.20
2017-09-10T13:16:24.258Z,2.00
2017-09-10T13:17:24.269Z,2.10
2017-09-10T13:19:17.260Z,0.90
2017-09-10T13:20:17.242Z,0.80
2017-09-10T13:22:11.172Z,0.70
2017-09-10T13:23:11.197Z,1.60
2017-09-10T13:25:04.170Z,0.90
2017-09-10T13:26:04.156Z,1.10
2017-09-10T13:27:57.098Z,1.30
2017-09-10T13:28:57.122Z,1.30
2017-09-10T13:30:50.104Z,0.90
2017-09-10T13:31:50.085Z,1.10
2017-09-10T13:33:43.083Z,1.00
2017-09-10T13:34:43.073Z,1.00
2017-09-10T13:36:36.002Z,1.10
2017-09-10T13:37:36.021Z,2.50
2017-09-10T13:39:29.002Z,0.90
2017-09-10T13:40:28.985Z,1.10
2017-09-10T13:42:21.929Z,0.80
2017-09-10T13:43:21.953Z,0.80
2017-09-10T13:45:14.930Z,0.90
2017-09-10T13:46:14.911Z,0.80
2017-09-10T13:48:07.858Z,1.30
2017-09-10T13:49:07.871Z,1.10
2017-09-10T13:51:00.849Z,2.40
2017-09-10T13:52:00.837Z,3.40
2017-09-10T13:53:53.782Z,1.10
2017-09-10T13:54:53.800Z,1.10
2017-09-10T13:56:46.783Z,2.10
2017-09-10T13:57:46.764Z,2.40
2017-09-10T13:59:40.705Z,1.20
2017-09-10T14:00:40.731Z,2.60
2017-09-10T14:02:33.712Z,0.80
2017-09-10T14:03:33.696Z,1.10
2017-09-10T14:05:27.663Z,2.00
2017-09-10T14:06:27.651Z,1.20
2017-09-10T14:08:20.603Z,1.10
2017-09-10T14:09:20.620Z,1.10
2017-09-10T14:11:13.605Z,1.10
2017-09-10T14:12:13.586Z,0.90
2017-09-10T14:14:06.543Z,1.20
2017-09-10T14:15:06.562Z,1.80
2017-09-10T14:16:59.536Z,1.00
2017-09-10T14:17:59.525Z,1.20
2017-09-10T14:19:52.462Z,1.10
2017-09-10T14:20:52.486Z,1.30
2017-09-10T14:22:45.455Z,2.30
2017-09-10T14:23:45.446Z,1.90
2017-09-10T14:25:38.928Z,1.10
2017-09-10T14:26:38.900Z,1.70
2017-09-10T14:28:31.861Z,1.40
2017-09-10T14:29:31.878Z,1.20
2017-09-10T14:31:24.849Z,1.40
2017-09-10T14:32:24.838Z,1.10
2017-09-10T14:34:18.280Z,1.40
2017-09-10T14:35:18.295Z,1.80
2017-09-10T14:37:11.285Z,1.10
2017-09-10T14:38:11.256Z,1.30
2017-09-10T14:40:04.202Z,1.10
2017-09-10T14:41:04.219Z,1.80
2017-09-10T14:42:57.221Z,1.40
2017-09-10T14:43:57.185Z,1.70
2017-09-10T14:45:50.161Z,1.30
2017-09-10T14:46:50.154Z,0.90
2017-09-10T14:48:43.101Z,1.10
2017-09-10T14:49:43.111Z,1.60
2017-09-10T14:51:36.088Z,1.50
2017-09-10T14:52:36.070Z,1.10
2017-09-10T14:54:29.012Z,1.00
2017-09-10T14:55:29.033Z,1.20
2017-09-10T14:57:22.019Z,1.20
2017-09-10T14:58:22.004Z,1.20
2017-09-10T15:00:14.941Z,1.50
2017-09-10T15:01:14.965Z,1.50
2017-09-10T15:03:07.941Z,1.00
2017-09-10T15:04:07.929Z,1.00
2017-09-10T15:06:01.065Z,4.80
2017-09-10T15:07:01.077Z,3.40
2017-09-10T15:08:54.060Z,2.00
2017-09-10T15:09:54.045Z,4.20
2017-09-10T15:11:47.022Z,1.80
2017-09-10T15:12:47.014Z,1.20
2017-09-10T15:14:39.958Z,1.10
2017-09-10T15:15:39.998Z,1.50
2017-09-10T15:17:32.997Z,1.20
2017-09-10T15:18:32.930Z,1.20
2017-09-10T15:20:25.874Z,1.50
2017-09-10T15:21:25.893Z,1.10
2017-09-10T15:23:18.875Z,1.90
2017-09-10T15:24:18.854Z,2.80
2017-09-10T15:26:11.815Z,2.70
2017-09-10T15:27:11.814Z,1.20
2017-09-10T15:29:05.778Z,2.00
2017-09-10T15:30:05.761Z,4.80
2017-09-10T15:31:58.748Z,1.10
2017-09-10T15:32:58.731Z,2.50
2017-09-10T15:34:51.688Z,2.20
2017-09-10T15:35:51.700Z,1.10
2017-09-10T15:37:44.684Z,2.40
2017-09-10T15:38:44.703Z,2.60
2017-09-10T15:40:37.614Z,1.00
2017-09-10T15:41:37.634Z,1.80
2017-09-10T15:43:30.616Z,1.90
2017-09-10T15:44:30.605Z,1.80
2017-09-10T15:46:23.544Z,1.00
2017-09-10T15:47:23.566Z,3.00
2017-09-10T15:49:16.545Z,1.70
2017-09-10T15:50:16.527Z,1.70
2017-09-10T15:52:09.518Z,1.50
2017-09-10T15:53:09.503Z,2.30
2017-09-10T15:55:02.486Z,3.60
2017-09-10T15:56:02.507Z,1.00
2017-09-10T15:57:55.477Z,2.10
2017-09-10T15:58:55.462Z,1.50
2017-09-10T16:00:48.432Z,1.60
2017-09-10T16:01:48.453Z,2.10